createdAt,value
2019-04-04T00:13:16.684Z,6.60
2019-04-04T00:15:57.657Z,6.60
2019-04-04T00:18:38.917Z,6.60
2019-04-04T00:21:20.204Z,6.50
2019-04-04T00:24:01.658Z,6.50
2019-04-04T00:26:42.750Z,6.50
2019-04-04T00:29:24.146Z,6.50
2019-04-04T00:32:05.219Z,6.50
2019-04-04T00:34:46.168Z,6.50
2019-04-04T00:37:27.613Z,6.40
2019-04-04T00:40:10.924Z,6.50
2019-04-04T00:42:51.165Z,6.50
2019-04-04T00:45:32.329Z,6.50
2019-04-04T00:48:13.517Z,6.50
2019-04-04T00:50:54.893Z,6.50
2019-04-04T00:53:36.217Z,6.40
2019-04-04T00:56:18.066Z,6.50
2019-04-04T00:59:00.024Z,6.50
2019-04-04T01:01:41.212Z,6.50
2019-04-04T01:04:22.599Z,6.40
2019-04-04T01:07:05.154Z,6.40
2019-04-04T01:09:47.929Z,6.40
2019-04-04T01:12:17.161Z,6.40
2019-04-04T01:15:00.127Z,6.40
2019-04-04T01:17:41.652Z,6.40
2019-04-04T01:20:22.749Z,6.30
2019-04-04T01:23:04.103Z,6.30
2019-04-04T01:25:44.597Z,6.30
2019-04-04T01:28:26.037Z,6.30
2019-04-04T01:31:07.219Z,6.30
2019-04-04T01:33:50.958Z,6.30
2019-04-04T01:36:30.950Z,6.20
2019-04-04T01:39:12.293Z,6.20
2019-04-04T01:41:53.668Z,6.10
2019-04-04T01:44:34.892Z,6.10
2019-04-04T01:47:16.933Z,6.00
2019-04-04T01:49:58.722Z,6.00
2019-04-04T01:52:40.232Z,5.90
2019-04-04T01:55:21.611Z,5.90
2019-04-04T01:58:03.022Z,5.90
2019-04-04T02:00:46.019Z,5.90
2019-04-04T02:03:28.171Z,5.90
2019-04-04T02:06:09.435Z,5.80
2019-04-04T02:08:50.340Z,5.80
2019-04-04T02:11:31.704Z,5.80
2019-04-04T02:14:12.496Z,5.70
2019-04-04T02:16:53.751Z,5.70
2019-04-04T02:19:35.190Z,5.60
2019-04-04T02:22:16.330Z,5.60
2019-04-04T02:24:56.787Z,5.60
2019-04-04T02:27:38.452Z,5.60
2019-04-04T02:30:19.893Z,5.50
2019-04-04T02:33:00.904Z,5.50
2019-04-04T02:35:43.683Z,5.40
2019-04-04T02:38:27.100Z,5.40
2019-04-04T02:41:06.541Z,5.40
2019-04-04T02:43:47.906Z,5.30
2019-04-04T02:46:28.941Z,5.20
2019-04-04T02:49:09.796Z,5.20
2019-04-04T02:51:51.142Z,5.10
2019-04-04T02:54:32.347Z,5.20
2019-04-04T02:57:13.525Z,5.20
2019-04-04T02:59:54.562Z,5.20
2019-04-04T03:02:36.944Z,5.10
2019-04-04T03:05:19.185Z,5.20
2019-04-04T03:08:03.460Z,5.10
2019-04-04T03:10:43.027Z,5.10
2019-04-04T03:13:24.418Z,5.10
2019-04-04T03:16:05.753Z,5.10
2019-04-04T03:18:46.265Z,5.10
2019-04-04T03:21:27.918Z,5.10
2019-04-04T03:23:56.786Z,5.10
2019-04-04T03:26:44.830Z,5.20
2019-04-04T03:29:37.404Z,5.10
2019-04-04T03:32:23.319Z,5.10
2019-04-04T03:35:31.394Z,5.10
2019-04-04T03:38:39.390Z,5.20
2019-04-04T03:41:30.081Z,5.20
2019-04-04T03:44:26.718Z,5.20
2019-04-04T03:47:14.790Z,5.20
2019-04-04T03:50:03.704Z,5.30
2019-04-04T03:52:51.794Z,5.20
2019-04-04T03:55:39.869Z,5.30
2019-04-04T03:58:47.781Z,5.20
2019-04-04T04:01:35.861Z,5.30
2019-04-04T04:04:43.866Z,5.30
2019-04-04T04:07:32.105Z,5.30
2019-04-04T04:10:26.543Z,5.30
2019-04-04T04:13:02.167Z,5.30
2019-04-04T04:15:30.924Z,5.20
2019-04-04T04:17:59.720Z,5.20
2019-04-04T04:20:28.407Z,5.20
2019-04-04T04:22:57.884Z,5.20
2019-04-04T04:25:26.600Z,5.30
2019-04-04T04:27:55.329Z,5.30
2019-04-04T04:30:24.046Z,5.40
2019-04-04T04:32:55.676Z,5.30
2019-04-04T04:35:23.320Z,5.30
2019-04-04T04:37:53.461Z,5.30
2019-04-04T04:40:22.650Z,5.30
2019-04-04T04:42:51.382Z,5.40
2019-04-04T04:45:20.090Z,5.40
2019-04-04T04:47:48.907Z,5.40
2019-04-04T04:50:17.690Z,5.50
2019-04-04T04:52:47.548Z,5.50
2019-04-04T04:55:19.404Z,5.50
2019-04-04T04:57:48.250Z,5.50
2019-04-04T05:00:17.161Z,5.50
2019-04-04T05:02:45.964Z,5.50
2019-04-04T05:05:14.808Z,5.50
2019-04-04T05:07:43.540Z,5.50
2019-04-04T05:10:14.651Z,5.50
2019-04-04T05:12:42.848Z,5.40
2019-04-04T05:15:11.783Z,5.40
2019-04-04T05:17:42.015Z,5.50
2019-04-04T05:20:11.368Z,5.40
2019-04-04T05:22:40.562Z,5.40
2019-04-04T05:25:09.386Z,5.50
2019-04-04T05:27:38.129Z,5.50
2019-04-04T05:30:08.514Z,5.50
2019-04-04T05:32:37.505Z,5.50
2019-04-04T05:35:06.721Z,5.50
2019-04-04T05:37:37.869Z,5.50
2019-04-04T05:40:06.744Z,5.50
2019-04-04T05:42:35.605Z,5.60
2019-04-04T05:45:06.773Z,5.60
2019-04-04T05:47:35.602Z,5.70
2019-04-04T05:50:06.044Z,5.70
2019-04-04T05:52:34.826Z,5.80
2019-04-04T05:55:04.903Z,5.80
2019-04-04T05:57:33.603Z,5.90
2019-04-04T06:00:03.372Z,5.90
2019-04-04T06:02:32.150Z,5.90
2019-04-04T06:05:01.028Z,5.90
2019-04-04T06:07:29.732Z,6.00
2019-04-04T06:09:58.479Z,6.00
2019-04-04T06:12:27.252Z,6.10
2019-04-04T06:14:56.055Z,6.10
2019-04-04T06:17:27.020Z,6.20
2019-04-04T06:19:55.201Z,6.20
2019-04-04T06:22:23.977Z,6.30
2019-04-04T06:24:52.710Z,6.30
2019-04-04T06:27:23.122Z,6.30
2019-04-04T06:29:51.892Z,6.40
2019-04-04T06:32:20.662Z,6.50
2019-04-04T06:34:49.462Z,6.50
2019-04-04T06:37:20.052Z,6.50
2019-04-04T06:39:48.600Z,6.60
2019-04-04T06:42:17.338Z,6.70
2019-04-04T06:44:46.114Z,6.80
2019-04-04T06:47:16.474Z,6.90
2019-04-04T06:49:45.903Z,7.00
2019-04-04T06:52:16.323Z,7.20
2019-04-04T06:54:45.221Z,7.30
2019-04-04T06:57:13.952Z,7.40
2019-04-04T06:59:43.336Z,7.60
2019-04-04T07:02:12.830Z,7.80
2019-04-04T07:04:41.578Z,7.90
2019-04-04T07:07:12.524Z,8.00
2019-04-04T07:09:40.705Z,8.10
2019-04-04T07:12:20.852Z,8.20
2019-04-04T07:14:45.543Z,8.30
2019-04-04T07:17:10.377Z,8.40
2019-04-04T07:19:39.130Z,8.50
2019-04-04T07:22:07.856Z,8.70
2019-04-04T07:24:36.598Z,8.80
2019-04-04T07:27:05.394Z,8.80
2019-04-04T07:29:34.179Z,8.90
2019-04-04T07:32:02.980Z,8.90
2019-04-04T07:34:31.760Z,8.80
2019-04-04T07:37:00.463Z,8.80
2019-04-04T07:39:32.007Z,8.60
2019-04-04T07:41:59.584Z,8.60
2019-04-04T07:44:28.320Z,8.50
2019-04-04T07:46:57.035Z,8.50
2019-04-04T07:49:25.904Z,8.40
2019-04-04T07:51:54.689Z,8.30
2019-04-04T07:54:23.416Z,8.40
2019-04-04T07:56:52.117Z,8.40
2019-04-04T07:59:20.886Z,8.30
2019-04-04T08:01:51.445Z,8.30
2019-04-04T08:04:20.068Z,8.40
2019-04-04T08:06:48.778Z,8.60
2019-04-04T08:09:17.653Z,8.80
2019-04-04T08:11:46.377Z,8.90
2019-04-04T08:14:15.165Z,8.90
2019-04-04T08:16:43.893Z,9.00
2019-04-04T08:19:12.712Z,8.90
2019-04-04T08:21:41.434Z,9.00
2019-04-04T08:24:10.157Z,9.00
2019-04-04T08:26:38.855Z,9.10
2019-04-04T08:29:07.656Z,9.20
2019-04-04T08:31:36.373Z,9.40
2019-04-04T08:34:05.343Z,9.60
2019-04-04T08:36:35.791Z,9.70
2019-04-04T08:39:05.775Z,9.80
2019-04-04T08:41:34.553Z,9.70
2019-04-04T08:44:03.494Z,9.70
2019-04-04T08:46:32.252Z,9.80
2019-04-04T08:49:01.068Z,9.70
2019-04-04T08:51:30.449Z,9.90
2019-04-04T08:53:59.306Z,9.80
2019-04-04T08:56:28.215Z,9.80
2019-04-04T08:58:56.963Z,9.80
2019-04-04T09:01:25.734Z,9.80
2019-04-04T09:03:54.512Z,9.80
2019-04-04T09:06:23.340Z,9.70
2019-04-04T09:08:52.112Z,9.80
2019-04-04T09:11:21.180Z,9.80
2019-04-04T09:13:49.886Z,9.80
2019-04-04T09:16:18.683Z,10.00
2019-04-04T09:18:47.473Z,10.10
2019-04-04T09:21:16.279Z,10.00
2019-04-04T09:23:45.039Z,10.10
2019-04-04T09:26:13.915Z,10.20
2019-04-04T09:28:42.776Z,10.40
2019-04-04T09:31:11.583Z,10.50
2019-04-04T09:33:41.435Z,10.50
2019-04-04T09:36:10.257Z,10.50
2019-04-04T09:38:38.971Z,10.30
2019-04-04T09:41:07.851Z,10.30
2019-04-04T09:43:36.574Z,10.40
2019-04-04T09:46:05.526Z,10.40
2019-04-04T09:48:34.447Z,10.40
2019-04-04T09:51:03.195Z,10.50
2019-04-04T09:53:32.035Z,10.50
2019-04-04T09:56:00.744Z,10.60
2019-04-04T09:58:29.516Z,10.60
2019-04-04T10:00:58.484Z,10.60
2019-04-04T10:03:27.196Z,10.70
2019-04-04T10:05:55.901Z,10.80
2019-04-04T10:08:26.457Z,10.70
2019-04-04T10:10:55.282Z,10.60
2019-04-04T10:13:24.030Z,10.50
2019-04-04T10:15:52.742Z,10.50
2019-04-04T10:18:21.507Z,10.50
2019-04-04T10:20:50.264Z,10.50
2019-04-04T10:23:19.005Z,10.40
2019-04-04T10:25:47.707Z,10.40
2019-04-04T10:28:16.513Z,10.50
2019-04-04T10:30:45.291Z,10.40
2019-04-04T10:33:14.040Z,10.60
2019-04-04T10:35:42.751Z,10.70
2019-04-04T10:38:11.560Z,10.50
2019-04-04T10:40:40.267Z,10.70
2019-04-04T10:43:09.019Z,10.60
2019-04-04T10:45:37.730Z,10.70
2019-04-04T10:48:06.529Z,10.80
2019-04-04T10:50:35.260Z,11.00
2019-04-04T10:53:04.241Z,11.10
2019-04-04T10:55:33.088Z,11.10
2019-04-04T10:58:02.777Z,11.00
2019-04-04T11:00:31.571Z,11.00
2019-04-04T11:03:00.418Z,11.00
2019-04-04T11:05:29.167Z,11.00
2019-04-04T11:07:57.869Z,10.90
2019-04-04T11:10:26.668Z,11.20
2019-04-04T11:12:55.367Z,11.00
2019-04-04T11:15:24.133Z,10.60
2019-04-04T11:17:52.845Z,10.40
2019-04-04T11:20:21.576Z,10.40
2019-04-04T11:22:50.322Z,10.40
2019-04-04T11:25:19.261Z,10.10
2019-04-04T11:27:48.042Z,10.00
2019-04-04T11:30:16.863Z,9.80
2019-04-04T11:32:48.813Z,9.70
2019-04-04T11:35:16.658Z,9.60
2019-04-04T11:37:45.407Z,9.70
2019-04-04T11:40:14.381Z,9.60
2019-04-04T11:42:43.146Z,9.70
2019-04-04T11:45:12.023Z,9.80
2019-04-04T11:47:40.735Z,9.60
2019-04-04T11:50:10.616Z,9.60
2019-04-04T11:52:39.339Z,9.50
2019-04-04T11:55:08.271Z,9.50
2019-04-04T11:57:37.112Z,9.40
2019-04-04T12:00:09.459Z,9.40
2019-04-04T12:02:38.248Z,9.10
2019-04-04T12:05:07.806Z,9.10
2019-04-04T12:07:38.417Z,9.10
2019-04-04T12:10:08.190Z,9.10
2019-04-04T12:12:37.240Z,9.00
2019-04-04T12:15:09.033Z,9.10
2019-04-04T12:17:37.912Z,9.10
2019-04-04T12:20:07.143Z,9.20
2019-04-04T12:22:35.928Z,9.10
2019-04-04T12:25:05.682Z,9.20
2019-04-04T12:27:34.624Z,9.20
2019-04-04T12:30:06.290Z,9.20
2019-04-04T12:32:35.023Z,9.00
2019-04-04T12:35:04.073Z,8.90
2019-04-04T12:37:32.959Z,8.90
2019-04-04T12:40:01.683Z,8.90
2019-04-04T12:42:30.488Z,8.90
2019-04-04T12:45:05.133Z,8.90
2019-04-04T12:47:32.662Z,9.00
2019-04-04T12:50:01.446Z,9.00
2019-04-04T12:52:30.452Z,9.00
2019-04-04T12:54:59.306Z,9.00
2019-04-04T12:57:28.105Z,8.90
2019-04-04T12:59:56.964Z,8.80
2019-04-04T13:02:25.709Z,8.80
2019-04-04T13:04:54.400Z,8.80
2019-04-04T13:07:23.137Z,8.80
2019-04-04T13:09:51.979Z,8.90
2019-04-04T13:12:20.795Z,9.10
2019-04-04T13:14:49.576Z,9.20
2019-04-04T13:17:18.305Z,9.30
2019-04-04T13:19:47.079Z,9.30
2019-04-04T13:22:15.925Z,9.20
2019-04-04T13:24:44.631Z,9.30
2019-04-04T13:27:13.414Z,9.20
2019-04-04T13:29:42.157Z,9.00
2019-04-04T13:32:10.864Z,9.00
2019-04-04T13:34:39.606Z,8.80
2019-04-04T13:37:08.388Z,8.70
2019-04-04T13:39:37.272Z,8.70
2019-04-04T13:42:06.043Z,8.70
2019-04-04T13:44:34.790Z,8.70
2019-04-04T13:47:03.905Z,8.90
2019-04-04T13:49:32.966Z,9.00
2019-04-04T13:52:01.801Z,9.10
2019-04-04T13:54:30.640Z,9.30
2019-04-04T13:56:59.506Z,9.50
2019-04-04T13:59:28.231Z,9.80
2019-04-04T14:01:57.086Z,9.90
2019-04-04T14:04:25.902Z,10.00
2019-04-04T14:06:54.689Z,10.30
2019-04-04T14:09:23.579Z,10.40
2019-04-04T14:11:52.443Z,10.40
2019-04-04T14:14:21.195Z,10.50
2019-04-04T14:16:49.947Z,10.50
2019-04-04T14:19:18.761Z,10.40
2019-04-04T14:21:47.570Z,10.10
2019-04-04T14:24:16.399Z,10.00
2019-04-04T14:26:46.203Z,9.80
2019-04-04T14:29:26.762Z,9.50
2019-04-04T14:31:45.949Z,9.30
2019-04-04T14:34:15.115Z,8.50
2019-04-04T14:36:43.990Z,8.20
2019-04-04T14:39:12.775Z,7.80
2019-04-04T14:41:41.584Z,7.70
2019-04-04T14:44:10.310Z,7.50
2019-04-04T14:46:39.345Z,7.10
2019-04-04T14:49:08.742Z,7.00
2019-04-04T14:51:37.508Z,6.90
2019-04-04T14:54:06.257Z,6.90
2019-04-04T14:56:34.987Z,6.70
2019-04-04T14:59:03.829Z,6.60
2019-04-04T15:01:34.971Z,6.60
2019-04-04T15:04:03.064Z,6.60
2019-04-04T15:06:31.937Z,6.60
2019-04-04T15:09:00.659Z,6.70
2019-04-04T15:11:29.404Z,6.80
2019-04-04T15:13:58.111Z,6.70
2019-04-04T15:16:26.837Z,6.80
2019-04-04T15:18:55.568Z,6.80
2019-04-04T15:21:24.304Z,6.70
2019-04-04T15:23:53.168Z,6.70
2019-04-04T15:26:21.923Z,6.70
2019-04-04T15:28:50.699Z,6.80
2019-04-04T15:31:19.474Z,6.90
2019-04-04T15:33:50.472Z,6.90
2019-04-04T15:36:18.684Z,7.00
2019-04-04T15:38:47.437Z,7.10
2019-04-04T15:41:16.316Z,7.10
2019-04-04T15:43:45.189Z,7.20
2019-04-04T15:46:14.050Z,7.10
2019-04-04T15:48:42.943Z,7.30
2019-04-04T15:51:11.635Z,7.30
2019-04-04T15:53:40.407Z,7.50
2019-04-04T15:56:09.304Z,7.80
2019-04-04T15:58:38.110Z,8.00
2019-04-04T16:01:06.966Z,8.10
2019-04-04T16:03:35.851Z,8.20
2019-04-04T16:06:04.626Z,8.20
2019-04-04T16:08:33.358Z,8.20
2019-04-04T16:11:02.151Z,8.00
2019-04-04T16:13:31.019Z,7.90
2019-04-04T16:15:59.904Z,7.90
2019-04-04T16:18:28.633Z,7.80
2019-04-04T16:20:57.506Z,7.80
2019-04-04T16:23:26.279Z,7.80
2019-04-04T16:25:55.052Z,7.80
2019-04-04T16:28:23.889Z,7.80
2019-04-04T16:30:52.670Z,7.70
2019-04-04T16:33:21.402Z,7.70
2019-04-04T16:35:50.202Z,7.70
2019-04-04T16:38:18.937Z,7.80
2019-04-04T16:40:47.687Z,7.90
2019-04-04T16:43:16.411Z,7.90
2019-04-04T16:45:45.149Z,8.00
2019-04-04T16:48:14.198Z,8.10
2019-04-04T16:50:45.139Z,8.20
2019-04-04T16:53:14.215Z,8.20
2019-04-04T16:55:43.156Z,8.20
2019-04-04T16:58:11.956Z,8.20
2019-04-04T17:00:40.770Z,8.20
2019-04-04T17:03:09.476Z,8.10
2019-04-04T17:05:38.376Z,8.10
2019-04-04T17:08:07.319Z,8.00
2019-04-04T17:10:36.199Z,7.80
2019-04-04T17:13:05.064Z,7.70
2019-04-04T17:15:34.028Z,7.60
2019-04-04T17:18:02.892Z,7.40
2019-04-04T17:20:31.641Z,7.40
2019-04-04T17:23:00.370Z,7.30
2019-04-04T17:25:29.109Z,7.20
2019-04-04T17:27:57.883Z,7.20
2019-04-04T17:30:26.724Z,7.10
2019-04-04T17:32:55.633Z,7.10
2019-04-04T17:35:24.623Z,7.10
2019-04-04T17:37:53.513Z,7.00
2019-04-04T17:40:22.299Z,7.00
2019-04-04T17:42:51.033Z,7.00
2019-04-04T17:45:19.889Z,7.00
2019-04-04T17:47:48.909Z,7.00
2019-04-04T17:50:19.508Z,7.10
2019-04-04T17:52:49.159Z,7.10
2019-04-04T17:55:18.562Z,7.10
2019-04-04T17:57:47.745Z,7.00
2019-04-04T18:00:17.364Z,7.00
2019-04-04T18:02:46.249Z,6.90
2019-04-04T18:05:15.928Z,6.80
2019-04-04T18:07:44.810Z,6.80
2019-04-04T18:10:14.179Z,6.70
2019-04-04T18:12:42.976Z,6.70
2019-04-04T18:15:11.919Z,6.60
2019-04-04T18:17:40.728Z,6.60
2019-04-04T18:20:10.575Z,6.60
2019-04-04T18:22:39.379Z,6.60
2019-04-04T18:25:08.489Z,6.50
2019-04-04T18:27:37.363Z,6.60
2019-04-04T18:30:10.498Z,6.50
2019-04-04T18:32:39.380Z,6.50
2019-04-04T18:35:08.466Z,6.50
2019-04-04T18:37:37.505Z,6.60
2019-04-04T18:40:07.212Z,6.60
2019-04-04T18:42:36.152Z,6.60
2019-04-04T18:45:06.128Z,6.60
2019-04-04T18:47:34.993Z,6.60
2019-04-04T18:50:06.014Z,6.60
2019-04-04T18:52:34.800Z,6.60
2019-04-04T18:55:05.486Z,6.50
2019-04-04T18:57:34.355Z,6.50
2019-04-04T19:00:05.715Z,6.50
2019-04-04T19:02:34.526Z,6.40
2019-04-04T19:05:05.478Z,6.40
2019-04-04T19:07:39.635Z,6.40
2019-04-04T19:10:06.029Z,6.30
2019-04-04T19:12:34.806Z,6.30
2019-04-04T19:15:07.503Z,6.20
2019-04-04T19:17:35.148Z,6.20
2019-04-04T19:20:09.713Z,6.20
2019-04-04T19:22:37.925Z,6.10
2019-04-04T19:25:07.526Z,6.00
2019-04-04T19:27:36.472Z,6.00
2019-04-04T19:30:09.965Z,6.00
2019-04-04T19:32:38.944Z,6.00
2019-04-04T19:35:08.140Z,6.00
2019-04-04T19:37:36.920Z,6.00
2019-04-04T19:40:06.123Z,6.00
2019-04-04T19:42:34.901Z,6.00
2019-04-04T19:45:08.269Z,6.00
2019-04-04T19:47:37.139Z,6.00
2019-04-04T19:50:10.373Z,6.00
2019-04-04T19:52:39.222Z,6.00
2019-04-04T19:55:08.203Z,6.00
2019-04-04T19:57:36.935Z,6.00
2019-04-04T20:00:08.096Z,6.00
2019-04-04T20:02:36.931Z,6.00
2019-04-04T20:05:07.383Z,5.90
2019-04-04T20:07:36.277Z,5.90
2019-04-04T20:10:06.213Z,5.90
2019-04-04T20:12:35.094Z,5.90
2019-04-04T20:15:06.117Z,6.00
2019-04-04T20:17:34.956Z,5.90
2019-04-04T20:20:07.087Z,5.90
2019-04-04T20:22:36.604Z,5.90
2019-04-04T20:25:06.293Z,5.90
2019-04-04T20:27:35.202Z,5.90
2019-04-04T20:30:08.674Z,6.00
2019-04-04T20:32:37.467Z,5.90
2019-04-04T20:35:08.498Z,5.90
2019-04-04T20:37:37.300Z,5.90
2019-04-04T20:40:06.648Z,5.90
2019-04-04T20:42:35.468Z,5.90
2019-04-04T20:45:05.914Z,5.90
2019-04-04T20:47:34.853Z,5.90
2019-04-04T20:50:06.055Z,6.00
2019-04-04T20:52:34.833Z,6.00
2019-04-04T20:55:04.852Z,5.90
2019-04-04T20:57:33.590Z,5.90
2019-04-04T21:00:02.852Z,5.80
2019-04-04T21:02:31.601Z,5.90
2019-04-04T21:05:00.339Z,5.80
2019-04-04T21:07:29.168Z,5.80
2019-04-04T21:09:57.888Z,5.80
2019-04-04T21:12:26.695Z,5.80
2019-04-04T21:14:55.559Z,5.80
2019-04-04T21:17:24.361Z,5.80
2019-04-04T21:19:53.217Z,5.70
2019-04-04T21:22:27.835Z,5.70
2019-04-04T21:24:52.355Z,5.70
2019-04-04T21:27:21.066Z,5.70
2019-04-04T21:29:49.888Z,5.70
2019-04-04T21:32:18.695Z,5.70
2019-04-04T21:34:47.616Z,5.70
2019-04-04T21:37:16.405Z,5.80
2019-04-04T21:39:45.223Z,5.70
2019-04-04T21:42:14.006Z,5.70
2019-04-04T21:44:42.736Z,5.70
2019-04-04T21:47:11.447Z,5.70
2019-04-04T21:49:40.248Z,5.60
2019-04-04T21:52:09.026Z,5.60
2019-04-04T21:54:37.740Z,5.60
2019-04-04T21:57:06.474Z,5.60
2019-04-04T21:59:35.213Z,5.70
2019-04-04T22:02:04.259Z,5.70
2019-04-04T22:04:33.065Z,5.80
2019-04-04T22:07:01.862Z,5.80
2019-04-04T22:09:33.519Z,5.80
2019-04-04T22:12:01.163Z,5.80
2019-04-04T22:14:29.869Z,5.90
2019-04-04T22:16:58.664Z,5.90
2019-04-04T22:19:27.532Z,5.80
2019-04-04T22:21:56.270Z,5.80
2019-04-04T22:24:24.969Z,5.90
2019-04-04T22:26:53.716Z,5.90
2019-04-04T22:29:22.431Z,5.90
2019-04-04T22:31:51.244Z,5.90
2019-04-04T22:34:19.963Z,6.00
2019-04-04T22:36:48.719Z,6.00
2019-04-04T22:39:17.560Z,6.00
2019-04-04T22:41:46.354Z,5.90
2019-04-04T22:44:15.125Z,5.90
2019-04-04T22:46:43.998Z,5.90
2019-04-04T22:49:12.725Z,5.90
2019-04-04T22:51:41.447Z,5.90
2019-04-04T22:54:10.161Z,5.90
2019-04-04T22:56:38.880Z,5.90
2019-04-04T22:59:07.591Z,5.80
2019-04-04T23:01:36.373Z,5.80
2019-04-04T23:04:05.170Z,5.70
2019-04-04T23:06:33.870Z,5.70
2019-04-04T23:09:04.395Z,5.60
2019-04-04T23:11:33.163Z,5.50
2019-04-04T23:14:01.959Z,5.50
2019-04-04T23:16:30.673Z,5.40
2019-04-04T23:18:59.404Z,5.40
2019-04-04T23:21:28.109Z,5.40
2019-04-04T23:23:56.925Z,5.40
2019-04-04T23:26:25.770Z,5.40
2019-04-04T23:28:54.506Z,5.40
2019-04-04T23:31:23.274Z,5.40
2019-04-04T23:33:52.011Z,5.40
2019-04-04T23:36:20.725Z,5.40
2019-04-04T23:38:49.460Z,5.50
2019-04-04T23:41:18.161Z,5.50
2019-04-04T23:43:46.897Z,5.50
2019-04-04T23:46:15.592Z,5.50
2019-04-04T23:48:44.327Z,5.50
2019-04-04T23:51:13.056Z,5.50
2019-04-04T23:53:41.789Z,5.50
2019-04-04T23:56:10.579Z,5.50
2019-04-04T23:58:39.376Z,5.50
